Time;durP1;ratioP1;P1;durP2;ratioP2;P2;SDS_P1;SDS_P2;PMS_P1;PMS_P2;Temp;Humidity;BMP_temperature;BMP_pressure;BME280_temperature;BME280_humidity;BME280_pressure;Samples;Min_cycle;Max_cycle;Signal;HPM_P1;HPM_P2
2023/12/09 00:00:55;;;;;;;13.37;10.97;;;4.20;99.90;;;;;;5005930;28;20763;-61
2023/12/09 00:03:22;;;;;;;13.30;10.73;;;4.20;99.90;;;;;;5009727;28;20224;-60
2023/12/09 00:05:49;;;;;;;13.57;10.37;;;4.20;99.90;;;;;;4992450;28;20206;-59
2023/12/09 00:08:16;;;;;;;11.87;10.50;;;4.10;99.90;;;;;;4990971;28;20225;-60
2023/12/09 00:10:43;;;;;;;11.33;9.57;;;4.10;99.90;;;;;;5010399;28;20676;-60
2023/12/09 00:13:10;;;;;;;10.73;8.97;;;4.00;99.90;;;;;;5011696;28;20758;-60
2023/12/09 00:15:39;;;;;;;12.73;9.77;;;4.00;99.90;;;;;;5011744;28;20208;-60
2023/12/09 00:18:06;;;;;;;10.03;9.03;;;3.90;99.90;;;;;;5011450;28;20308;-60
2023/12/09 00:20:33;;;;;;;10.17;8.70;;;3.90;99.90;;;;;;5013594;28;20705;-60
2023/12/09 00:23:00;;;;;;;10.67;9.50;;;3.90;99.90;;;;;;5011468;28;20680;-60
2023/12/09 00:25:27;;;;;;;10.20;8.87;;;3.90;99.90;;;;;;5011795;28;20214;-60
2023/12/09 00:27:54;;;;;;;11.53;10.33;;;3.90;99.90;;;;;;5011149;28;20234;-60
2023/12/09 00:30:21;;;;;;;12.30;10.67;;;3.90;99.90;;;;;;5014271;28;20196;-60
2023/12/09 00:32:50;;;;;;;11.37;9.73;;;4.00;99.90;;;;;;5019867;28;20202;-61
2023/12/09 00:35:17;;;;;;;10.90;9.73;;;4.00;99.90;;;;;;5011614;28;20205;-60
2023/12/09 00:37:44;;;;;;;11.07;10.07;;;3.90;99.90;;;;;;5010988;28;20807;-60
2023/12/09 00:40:12;;;;;;;12.17;10.23;;;3.90;99.90;;;;;;5011306;28;20310;-60
2023/12/09 00:42:39;;;;;;;11.13;9.97;;;3.90;99.90;;;;;;5013210;28;20220;-61
2023/12/09 00:45:07;;;;;;;12.00;9.37;;;3.90;99.90;;;;;;5011763;28;20200;-60
2023/12/09 00:47:33;;;;;;;12.07;9.97;;;3.90;99.90;;;;;;5011297;28;20224;-60
2023/12/09 00:50:02;;;;;;;10.77;9.77;;;4.00;99.90;;;;;;5010952;28;20197;-60
2023/12/09 00:52:29;;;;;;;10.33;9.23;;;4.00;99.90;;;;;;5013853;28;20297;-60
2023/12/09 00:54:56;;;;;;;13.67;10.80;;;4.00;99.90;;;;;;5011401;28;20206;-59
2023/12/09 00:57:24;;;;;;;13.80;10.17;;;4.10;99.90;;;;;;5010022;28;20225;-60
2023/12/09 00:59:51;;;;;;;15.10;10.77;;;4.00;99.90;;;;;;5009770;28;20220;-59
2023/12/09 01:02:18;;;;;;;12.23;10.37;;;4.00;99.90;;;;;;5009503;28;20205;-60
2023/12/09 01:04:45;;;;;;;13.77;10.73;;;4.00;99.90;;;;;;5009448;28;20290;-60
2023/12/09 01:07:14;;;;;;;12.67;10.23;;;4.00;99.90;;;;;;5009735;28;20256;-60
2023/12/09 01:09:42;;;;;;;14.43;10.23;;;3.90;99.90;;;;;;5010201;28;20650;-59
2023/12/09 01:12:10;;;;;;;13.37;11.47;;;3.90;99.90;;;;;;5013646;28;20193;-60
2023/12/09 01:14:37;;;;;;;11.20;9.73;;;4.00;99.90;;;;;;5011440;28;20202;-59
2023/12/09 01:17:04;;;;;;;12.23;10.93;;;4.00;99.90;;;;;;5010959;28;20206;-59
2023/12/09 01:19:31;;;;;;;13.10;10.00;;;4.00;99.90;;;;;;5012981;28;20670;-60
2023/12/09 01:21:58;;;;;;;13.30;10.10;;;4.00;99.90;;;;;;5017671;28;20363;-61
2023/12/09 01:24:26;;;;;;;13.70;10.47;;;4.00;99.90;;;;;;5013145;28;20209;-60
2023/12/09 01:26:53;;;;;;;15.57;9.93;;;3.90;99.90;;;;;;5014048;28;20618;-60
2023/12/09 01:29:20;;;;;;;12.73;10.03;;;3.90;99.90;;;;;;5012618;28;20375;-60
2023/12/09 01:31:47;;;;;;;12.17;10.63;;;3.80;99.90;;;;;;5017246;28;20194;-60
2023/12/09 01:34:14;;;;;;;13.23;9.67;;;3.90;99.90;;;;;;5014705;28;20342;-60
2023/12/09 01:36:41;;;;;;;15.83;11.23;;;3.90;99.90;;;;;;5014369;28;20209;-60
2023/12/09 01:39:09;;;;;;;10.77;9.67;;;3.90;99.90;;;;;;5014007;28;20376;-60
2023/12/09 01:41:37;;;;;;;11.10;8.57;;;3.90;99.90;;;;;;5020565;28;20224;-60
2023/12/09 01:44:05;;;;;;;11.60;10.20;;;3.90;99.90;;;;;;5014346;28;20297;-59
2023/12/09 01:46:33;;;;;;;13.53;10.60;;;3.90;99.90;;;;;;5014365;28;20340;-60
2023/12/09 01:49:00;;;;;;;11.73;10.00;;;4.00;99.90;;;;;;5012881;28;20228;-60
2023/12/09 01:51:28;;;;;;;14.73;9.43;;;4.10;99.90;;;;;;5015973;28;20255;-60
2023/12/09 01:53:55;;;;;;;14.37;10.23;;;4.10;99.90;;;;;;5014153;28;20643;-59
2023/12/09 01:56:23;;;;;;;12.37;11.07;;;4.10;99.90;;;;;;5014201;28;20244;-60
2023/12/09 01:58:52;;;;;;;11.83;10.33;;;4.10;99.90;;;;;;5013615;28;20303;-60
2023/12/09 02:01:19;;;;;;;13.60;9.57;;;4.00;99.90;;;;;;5014066;28;20283;-60
2023/12/09 02:03:46;;;;;;;13.13;10.00;;;3.90;99.90;;;;;;5013574;28;20704;-59
2023/12/09 02:06:13;;;;;;;13.90;10.87;;;3.90;99.90;;;;;;5012177;28;20670;-61
2023/12/09 02:08:41;;;;;;;12.20;10.90;;;3.90;99.90;;;;;;5012081;28;20228;-59
2023/12/09 02:11:18;;;;;;;15.90;11.43;;;4.00;99.90;;;;;;5005913;28;20296;-60
2023/12/09 02:13:56;;;;;;;13.20;10.50;;;4.00;99.90;;;;;;5013287;28;20214;-60
2023/12/09 02:16:28;;;;;;;10.97;9.87;;;4.00;99.90;;;;;;5013827;28;20262;-60
2023/12/09 02:18:58;;;;;;;12.83;9.87;;;4.00;99.90;;;;;;5027739;28;20280;-59
2023/12/09 02:21:25;;;;;;;12.67;11.37;;;3.90;99.90;;;;;;5011663;28;20264;-60
2023/12/09 02:23:53;;;;;;;12.97;11.57;;;3.90;99.90;;;;;;5013441;28;20229;-60
2023/12/09 02:26:25;;;;;;;11.40;9.47;;;3.90;99.90;;;;;;5012062;28;20253;-60
2023/12/09 02:28:57;;;;;;;14.40;11.20;;;3.90;99.90;;;;;;5017033;28;20225;-59
2023/12/09 02:31:29;;;;;;;12.53;10.13;;;3.90;99.90;;;;;;5014754;28;20256;-60
2023/12/09 02:33:56;;;;;;;12.57;8.97;;;3.90;99.90;;;;;;4994075;28;20277;-60
2023/12/09 02:36:27;;;;;;;12.03;10.33;;;4.00;99.90;;;;;;4993962;28;20300;-60
2023/12/09 02:38:56;;;;;;;9.77;8.23;;;4.00;99.90;;;;;;5023261;28;20708;-60
2023/12/09 02:41:24;;;;;;;13.67;10.50;;;3.90;99.90;;;;;;5011529;28;20784;-60
2023/12/09 02:43:51;;;;;;;13.27;10.50;;;4.00;99.90;;;;;;4993840;28;20205;-60
2023/12/09 02:46:18;;;;;;;11.17;9.27;;;4.00;99.90;;;;;;5000351;28;20205;-60
2023/12/09 02:48:45;;;;;;;10.10;9.07;;;4.10;99.90;;;;;;5011866;28;20225;-59
2023/12/09 02:51:12;;;;;;;12.30;9.27;;;4.00;99.90;;;;;;5012639;28;20260;-60
2023/12/09 02:53:39;;;;;;;9.63;8.63;;;4.00;99.90;;;;;;5012989;28;20246;-60
2023/12/09 02:56:08;;;;;;;10.63;8.33;;;4.00;99.90;;;;;;5012914;28;20205;-61
2023/12/09 02:58:35;;;;;;;12.80;9.77;;;4.00;99.90;;;;;;5023332;28;20278;-60
2023/12/09 03:01:02;;;;;;;11.57;9.40;;;4.00;99.90;;;;;;5012481;28;20276;-59
2023/12/09 03:03:29;;;;;;;10.10;8.77;;;4.00;99.90;;;;;;5009024;28;20713;-59
2023/12/09 03:05:56;;;;;;;9.37;7.57;;;4.10;99.90;;;;;;5005971;28;20632;-60
2023/12/09 03:08:23;;;;;;;12.00;9.23;;;4.00;99.90;;;;;;5010216;28;20766;-60
2023/12/09 03:10:50;;;;;;;11.23;9.27;;;3.90;99.90;;;;;;5012609;28;20744;-60
2023/12/09 03:13:19;;;;;;;11.03;9.57;;;4.00;99.90;;;;;;5011845;28;20677;-60
2023/12/09 03:15:46;;;;;;;9.23;8.33;;;4.00;99.90;;;;;;5011959;28;20212;-60
2023/12/09 03:18:13;;;;;;;11.13;9.47;;;4.00;99.90;;;;;;5019151;28;20225;-60
2023/12/09 03:20:40;;;;;;;10.37;8.50;;;4.00;99.90;;;;;;5032261;28;20295;-59
2023/12/09 03:23:07;;;;;;;9.10;8.20;;;4.00;99.90;;;;;;5032267;28;20627;-59
2023/12/09 03:25:34;;;;;;;12.17;9.30;;;4.00;99.90;;;;;;5019469;28;20208;-60
2023/12/09 03:28:00;;;;;;;7.97;7.13;;;4.00;99.90;;;;;;5012991;28;20635;-60
2023/12/09 03:30:29;;;;;;;12.97;10.00;;;4.00;99.90;;;;;;5012620;28;20206;-60
2023/12/09 03:32:56;;;;;;;13.07;9.07;;;4.10;99.90;;;;;;5012383;28;20236;-59
2023/12/09 03:35:23;;;;;;;11.60;9.80;;;4.10;99.90;;;;;;5011291;28;20210;-60
2023/12/09 03:37:50;;;;;;;9.77;8.80;;;4.00;99.90;;;;;;5015735;28;20654;-60
2023/12/09 03:40:17;;;;;;;9.57;8.63;;;3.90;99.90;;;;;;5032214;28;20616;-60
2023/12/09 03:42:44;;;;;;;10.10;9.03;;;3.80;99.90;;;;;;5031954;28;20222;-60
2023/12/09 03:45:11;;;;;;;9.87;8.80;;;3.80;99.90;;;;;;5015405;28;20209;-60
2023/12/09 03:47:39;;;;;;;9.43;8.53;;;3.70;99.90;;;;;;5011937;28;20231;-60
2023/12/09 03:50:07;;;;;;;9.63;8.63;;;3.70;99.90;;;;;;5012164;28;20224;-60
2023/12/09 03:52:34;;;;;;;8.77;7.90;;;3.70;99.90;;;;;;5012040;28;20259;-60
2023/12/09 03:55:01;;;;;;;8.20;7.40;;;3.60;99.90;;;;;;5011277;28;20204;-60
2023/12/09 03:57:28;;;;;;;7.73;7.13;;;3.50;99.90;;;;;;5011678;28;20279;-60
2023/12/09 03:59:56;;;;;;;8.57;7.87;;;3.50;99.90;;;;;;5011907;28;20213;-60
2023/12/09 04:02:23;;;;;;;8.47;7.67;;;3.40;99.90;;;;;;5011926;28;20221;-60
2023/12/09 04:04:51;;;;;;;9.70;8.80;;;3.40;99.90;;;;;;5009763;28;20265;-60
2023/12/09 04:07:18;;;;;;;9.50;8.37;;;3.30;99.90;;;;;;5009575;28;20310;-59
2023/12/09 04:09:45;;;;;;;9.07;7.20;;;3.30;99.90;;;;;;5012017;28;20259;-60
2023/12/09 04:12:12;;;;;;;9.47;8.03;;;3.30;99.90;;;;;;5011707;28;20257;-59
2023/12/09 04:14:39;;;;;;;10.17;7.80;;;3.30;99.90;;;;;;5010256;28;20206;-59
2023/12/09 04:17:06;;;;;;;9.83;7.60;;;3.40;99.90;;;;;;5011030;28;20210;-59
2023/12/09 04:19:33;;;;;;;9.23;7.77;;;3.40;99.90;;;;;;5011605;28;20265;-60
2023/12/09 04:22:02;;;;;;;11.03;8.43;;;3.40;99.90;;;;;;5011699;28;20225;-60
2023/12/09 04:24:29;;;;;;;8.70;7.37;;;3.30;99.90;;;;;;5011722;28;20208;-60
2023/12/09 04:26:56;;;;;;;8.60;7.70;;;3.40;99.90;;;;;;5007656;28;20517;-59
2023/12/09 04:29:23;;;;;;;9.40;7.97;;;3.50;99.90;;;;;;5018423;28;20651;-60
2023/12/09 04:31:52;;;;;;;9.50;8.17;;;3.60;99.90;;;;;;5030651;28;20200;-60
2023/12/09 04:34:19;;;;;;;10.17;8.00;;;3.60;99.90;;;;;;5031613;28;20208;-60
2023/12/09 04:36:47;;;;;;;10.17;8.07;;;3.60;99.90;;;;;;5011230;28;20768;-60
2023/12/09 04:39:15;;;;;;;10.90;8.63;;;3.70;99.90;;;;;;5025657;28;20274;-59
2023/12/09 04:41:43;;;;;;;10.70;9.07;;;3.60;99.90;;;;;;5031272;28;20224;-60
2023/12/09 04:44:10;;;;;;;13.20;8.33;;;3.50;99.90;;;;;;5031371;28;20204;-60
2023/12/09 04:46:37;;;;;;;11.77;8.27;;;3.50;99.90;;;;;;5012659;28;20267;-60
2023/12/09 04:49:04;;;;;;;9.47;7.93;;;3.50;99.90;;;;;;5023292;28;20324;-60
2023/12/09 04:51:32;;;;;;;10.63;8.87;;;3.50;99.90;;;;;;5031353;28;20255;-60
2023/12/09 04:53:59;;;;;;;8.83;7.70;;;3.50;99.90;;;;;;5033189;28;20695;-59
2023/12/09 04:56:27;;;;;;;9.63;8.10;;;3.40;99.90;;;;;;5017669;28;20205;-60
2023/12/09 04:58:54;;;;;;;8.37;7.50;;;3.40;99.90;;;;;;5014086;28;20279;-60
2023/12/09 05:01:21;;;;;;;8.10;7.40;;;3.40;99.90;;;;;;5015130;28;20230;-59
2023/12/09 05:03:48;;;;;;;11.60;7.83;;;3.40;99.90;;;;;;5015367;28;20259;-60
2023/12/09 05:06:15;;;;;;;8.37;7.57;;;3.40;99.90;;;;;;5011193;28;20202;-60
2023/12/09 05:08:42;;;;;;;11.03;8.70;;;3.20;99.90;;;;;;5023480;28;20222;-60
2023/12/09 05:11:09;;;;;;;10.13;8.57;;;3.20;99.90;;;;;;5015190;28;20714;-60
2023/12/09 05:13:37;;;;;;;10.97;8.20;;;3.20;99.90;;;;;;5014772;28;20201;-60
2023/12/09 05:16:05;;;;;;;13.97;9.53;;;3.20;99.90;;;;;;5014156;28;20209;-60
2023/12/09 05:18:33;;;;;;;12.60;11.00;;;3.20;99.90;;;;;;5020268;28;20216;-60
2023/12/09 05:21:00;;;;;;;10.67;8.80;;;3.20;99.90;;;;;;5033706;28;20197;-60
2023/12/09 05:23:27;;;;;;;11.80;10.17;;;3.20;99.90;;;;;;5033560;28;20225;-60
2023/12/09 05:25:55;;;;;;;14.90;11.03;;;3.20;99.90;;;;;;5013059;28;20260;-60
2023/12/09 05:28:22;;;;;;;11.03;9.67;;;3.20;99.90;;;;;;5019341;28;20704;-60
2023/12/09 05:30:50;;;;;;;11.37;10.00;;;3.20;99.90;;;;;;5034558;28;20208;-59
2023/12/09 05:33:17;;;;;;;13.37;9.10;;;3.10;99.90;;;;;;5034581;28;20250;-60
2023/12/09 05:35:44;;;;;;;14.90;8.47;;;3.10;99.90;;;;;;5024444;28;20252;-60
2023/12/09 05:38:11;;;;;;;12.30;8.47;;;3.30;99.90;;;;;;5016881;28;20247;-60
2023/12/09 05:40:38;;;;;;;10.47;8.43;;;3.40;99.90;;;;;;5017298;28;20669;-59
2023/12/09 05:43:05;;;;;;;11.47;8.90;;;3.40;99.90;;;;;;5008269;28;20581;-60
2023/12/09 05:45:32;;;;;;;10.67;8.20;;;3.50;99.90;;;;;;5011984;28;20206;-60
2023/12/09 05:48:01;;;;;;;12.23;8.60;;;3.60;99.90;;;;;;5012518;28;20221;-60
2023/12/09 05:50:28;;;;;;;11.37;8.57;;;3.50;99.90;;;;;;5006092;28;20210;-59
2023/12/09 05:52:55;;;;;;;9.27;8.30;;;3.50;99.90;;;;;;5006073;28;20204;-60
2023/12/09 05:55:22;;;;;;;10.03;8.80;;;3.50;99.90;;;;;;5013846;28;20232;-60
2023/12/09 05:57:50;;;;;;;9.50;8.13;;;3.50;99.90;;;;;;5013567;28;20255;-60
2023/12/09 06:00:17;;;;;;;9.90;8.70;;;3.50;99.90;;;;;;5005281;28;20233;-59
2023/12/09 06:02:44;;;;;;;12.40;7.87;;;3.40;99.90;;;;;;5005361;28;20310;-60
2023/12/09 06:05:13;;;;;;;10.00;8.10;;;3.50;99.90;;;;;;5012479;28;20689;-60
2023/12/09 06:07:39;;;;;;;11.67;8.77;;;3.40;99.90;;;;;;5012656;28;20249;-61
2023/12/09 06:10:07;;;;;;;12.60;8.80;;;3.70;99.90;;;;;;5008315;28;20201;-61
2023/12/09 06:12:35;;;;;;;10.83;8.13;;;3.30;99.90;;;;;;5013628;28;20211;-60
2023/12/09 06:15:02;;;;;;;10.80;8.97;;;3.30;99.90;;;;;;5013757;28;20213;-60
2023/12/09 06:17:29;;;;;;;11.27;9.87;;;3.30;99.90;;;;;;5012911;28;20229;-60
2023/12/09 06:19:56;;;;;;;13.73;9.43;;;3.40;99.90;;;;;;5012740;28;20590;-60
2023/12/09 06:22:24;;;;;;;9.93;8.57;;;3.40;99.90;;;;;;5013375;28;20221;-60
2023/12/09 06:24:52;;;;;;;11.47;8.43;;;3.40;99.90;;;;;;5012580;28;20754;-60
2023/12/09 06:27:19;;;;;;;12.47;9.43;;;3.30;99.90;;;;;;5014839;28;20746;-60
2023/12/09 06:29:46;;;;;;;11.50;8.87;;;3.30;99.90;;;;;;5013161;28;20202;-61
2023/12/09 06:32:14;;;;;;;15.07;11.80;;;3.30;99.90;;;;;;5013114;28;20212;-60
2023/12/09 06:34:41;;;;;;;11.17;9.67;;;3.30;99.90;;;;;;5012775;28;20226;-60
2023/12/09 06:37:08;;;;;;;10.60;8.03;;;3.40;99.90;;;;;;5004120;28;20216;-60
2023/12/09 06:39:37;;;;;;;12.83;9.07;;;3.50;99.90;;;;;;5003516;28;20208;-59
2023/12/09 06:42:05;;;;;;;10.40;8.03;;;3.60;99.90;;;;;;5011366;28;20657;-60
2023/12/09 06:44:32;;;;;;;9.60;8.23;;;3.60;99.90;;;;;;5005647;28;20289;-60
2023/12/09 06:46:59;;;;;;;9.27;7.67;;;3.60;99.90;;;;;;5016363;28;20201;-60
2023/12/09 06:49:26;;;;;;;12.40;8.17;;;3.60;99.90;;;;;;5015760;28;20207;-60
2023/12/09 06:51:54;;;;;;;9.17;7.83;;;3.70;99.90;;;;;;5011950;28;20205;-60
2023/12/09 06:54:21;;;;;;;8.30;7.37;;;3.70;99.90;;;;;;5017121;28;20211;-60
2023/12/09 06:56:52;;;;;;;8.23;7.43;;;3.70;99.90;;;;;;5013202;28;20208;-59
2023/12/09 06:59:19;;;;;;;10.40;8.30;;;3.70;99.90;;;;;;5016262;28;20223;-59
2023/12/09 07:01:49;;;;;;;8.90;8.00;;;3.70;99.90;;;;;;5013427;28;20209;-60
2023/12/09 07:04:16;;;;;;;9.60;8.10;;;3.70;99.90;;;;;;5013153;28;20211;-60
2023/12/09 07:06:46;;;;;;;10.53;9.43;;;3.30;99.90;;;;;;5012476;28;20203;-60
2023/12/09 07:09:13;;;;;;;12.43;8.73;;;3.60;99.90;;;;;;5003106;28;20220;-60
2023/12/09 07:11:40;;;;;;;8.63;7.70;;;3.50;99.90;;;;;;5012164;28;20727;-60
2023/12/09 07:14:09;;;;;;;10.10;8.10;;;3.60;99.90;;;;;;5020232;28;20253;-60
2023/12/09 07:16:37;;;;;;;8.20;7.13;;;3.60;99.90;;;;;;5010790;28;20208;-60
2023/12/09 07:19:06;;;;;;;7.27;6.60;;;3.60;99.90;;;;;;5012172;28;20253;-61
2023/12/09 07:21:33;;;;;;;7.00;6.10;;;3.70;99.90;;;;;;5012155;28;20204;-60
2023/12/09 07:24:00;;;;;;;8.30;7.00;;;3.70;99.90;;;;;;5011182;28;20708;-60
2023/12/09 07:26:28;;;;;;;7.37;6.67;;;3.70;99.90;;;;;;5004491;28;20201;-60
2023/12/09 07:28:55;;;;;;;9.03;6.77;;;3.80;99.90;;;;;;5006935;28;20308;-60
2023/12/09 07:31:23;;;;;;;6.30;5.77;;;3.90;99.90;;;;;;5012409;28;20244;-60
2023/12/09 07:33:50;;;;;;;7.30;5.60;;;4.00;99.90;;;;;;5011972;28;20200;-60
2023/12/09 07:36:18;;;;;;;7.73;6.57;;;4.00;99.90;;;;;;5011142;28;20740;-60
2023/12/09 07:38:45;;;;;;;9.80;6.07;;;4.00;99.90;;;;;;5011070;28;20241;-60
2023/12/09 07:41:12;;;;;;;7.07;6.27;;;4.10;99.90;;;;;;5010962;28;20252;-60
2023/12/09 07:43:39;;;;;;;11.10;7.40;;;4.20;99.90;;;;;;5004831;28;20221;-60
2023/12/09 07:46:06;;;;;;;9.57;6.03;;;4.30;99.90;;;;;;5011797;28;20204;-60
2023/12/09 07:48:35;;;;;;;6.77;5.07;;;4.30;99.90;;;;;;5010074;28;20232;-59
2023/12/09 07:51:02;;;;;;;4.70;4.30;;;4.50;99.90;;;;;;5011812;28;20205;-60
2023/12/09 07:53:29;;;;;;;5.83;4.70;;;4.60;99.90;;;;;;5011276;28;20205;-60
2023/12/09 07:55:57;;;;;;;6.43;4.73;;;4.70;99.90;;;;;;5011574;28;20206;-60
2023/12/09 07:58:24;;;;;;;5.93;5.20;;;4.80;99.90;;;;;;5008783;28;20321;-60
2023/12/09 08:00:51;;;;;;;10.47;6.03;;;4.80;99.90;;;;;;5003037;28;20295;-60
2023/12/09 08:03:19;;;;;;;5.50;5.00;;;4.80;99.90;;;;;;5011748;28;20220;-60
2023/12/09 08:05:47;;;;;;;8.93;5.17;;;4.80;99.90;;;;;;5011457;28;20209;-61
2023/12/09 08:08:14;;;;;;;5.50;5.00;;;4.80;99.90;;;;;;5010330;28;20219;-59
2023/12/09 08:10:42;;;;;;;5.27;4.60;;;4.70;99.90;;;;;;5010790;28;20208;-60
2023/12/09 08:13:09;;;;;;;5.33;4.70;;;4.70;99.90;;;;;;5011419;28;20195;-59
2023/12/09 08:15:36;;;;;;;5.27;4.80;;;4.70;99.90;;;;;;5010088;28;20267;-59
2023/12/09 08:18:04;;;;;;;5.03;4.53;;;4.70;99.90;;;;;;5003999;28;20712;-60
2023/12/09 08:20:34;;;;;;;6.60;5.07;;;4.70;99.90;;;;;;5007687;28;20201;-60
2023/12/09 08:23:03;;;;;;;6.17;4.70;;;4.60;99.90;;;;;;5003647;28;20221;-60
2023/12/09 08:25:30;;;;;;;5.43;4.70;;;4.70;99.90;;;;;;5006942;28;20213;-60
2023/12/09 08:27:57;;;;;;;7.30;5.43;;;4.70;99.90;;;;;;5009043;28;20237;-59
2023/12/09 08:30:24;;;;;;;7.07;4.83;;;4.70;99.90;;;;;;5019333;28;20205;-60
2023/12/09 08:32:52;;;;;;;6.50;5.00;;;4.80;99.90;;;;;;5014674;28;20712;-60
2023/12/09 08:35:19;;;;;;;6.83;6.13;;;4.80;99.90;;;;;;5015300;28;20212;-60
2023/12/09 08:37:47;;;;;;;5.90;5.27;;;4.80;99.90;;;;;;5014332;28;20950;-60
2023/12/09 08:40:17;;;;;;;6.47;5.87;;;4.80;99.90;;;;;;5015342;28;20258;-60
2023/12/09 08:42:46;;;;;;;7.57;5.07;;;5.00;99.90;;;;;;4997406;28;20224;-60
2023/12/09 08:45:16;;;;;;;7.47;6.03;;;5.10;99.90;;;;;;5014530;28;20264;-60
2023/12/09 08:47:44;;;;;;;7.63;5.43;;;5.30;99.90;;;;;;5014457;28;20227;-60
2023/12/09 08:50:11;;;;;;;9.40;4.70;;;5.40;99.90;;;;;;5014616;28;20210;-60
2023/12/09 08:52:39;;;;;;;6.22;4.78;;;5.50;99.90;;;;;;5005056;28;20460;-65
2023/12/09 08:55:08;;;;;;;5.57;4.40;;;5.70;99.90;;;;;;5003955;28;20201;-62
2023/12/09 08:57:36;;;;;;;4.10;3.60;;;6.00;99.90;;;;;;5010417;28;20223;-58
2023/12/09 09:00:08;;;;;;;4.00;3.67;;;6.20;99.90;;;;;;5008402;28;20206;-60
2023/12/09 09:02:35;;;;;;;3.03;2.80;;;6.50;99.90;;;;;;5012189;28;20285;-60
2023/12/09 09:05:03;;;;;;;1.20;1.10;;;6.70;99.90;;;;;;5014613;28;20206;-61
2023/12/09 09:07:30;;;;;;;2.70;2.30;;;6.80;99.90;;;;;;5011919;28;20411;-61
2023/12/09 09:09:58;;;;;;;2.23;2.03;;;6.80;99.90;;;;;;5014192;28;20292;-61
2023/12/09 09:12:25;;;;;;;2.03;1.93;;;7.00;99.90;;;;;;5009022;28;20208;-61
2023/12/09 09:14:53;;;;;;;3.20;2.10;;;7.00;99.90;;;;;;5010343;28;20205;-61
2023/12/09 09:17:20;;;;;;;2.30;1.80;;;7.10;99.90;;;;;;5013724;28;20227;-60
2023/12/09 09:19:47;;;;;;;3.67;2.00;;;7.10;99.90;;;;;;5013157;28;20220;-61
2023/12/09 09:22:15;;;;;;;3.50;2.50;;;7.10;99.90;;;;;;5013542;28;20556;-60
2023/12/09 09:24:42;;;;;;;1.90;1.80;;;7.20;99.90;;;;;;5013360;28;20260;-60
2023/12/09 09:27:09;;;;;;;3.67;2.23;;;7.10;99.90;;;;;;5015650;28;20727;-60
2023/12/09 09:29:36;;;;;;;3.63;2.37;;;7.20;99.90;;;;;;5007357;28;20200;-61
2023/12/09 09:32:05;;;;;;;1.83;1.70;;;7.10;99.90;;;;;;5009854;28;20261;-61
2023/12/09 09:34:32;;;;;;;2.70;2.30;;;7.10;99.90;;;;;;5005378;28;20737;-61
2023/12/09 09:36:59;;;;;;;3.07;2.77;;;7.10;99.90;;;;;;5003116;28;20287;-61
2023/12/09 09:39:26;;;;;;;2.60;2.40;;;7.20;99.90;;;;;;5003480;28;20693;-56
2023/12/09 09:42:01;;;;;;;4.30;2.53;;;7.30;99.90;;;;;;5016231;28;20663;-57
2023/12/09 09:44:29;;;;;;;2.47;2.27;;;7.40;99.90;;;;;;5008904;28;20653;-57
2023/12/09 09:46:58;;;;;;;3.40;3.10;;;7.40;99.90;;;;;;5006475;28;20255;-56
2023/12/09 09:49:31;;;;;;;4.17;3.33;;;7.40;99.90;;;;;;5004317;28;20950;-66
2023/12/09 09:52:00;;;;;;;2.27;2.03;;;7.30;99.90;;;;;;5003717;28;20223;-56
2023/12/09 09:54:30;;;;;;;2.37;2.27;;;7.20;99.90;;;;;;5001692;28;20202;-64
2023/12/09 09:56:58;;;;;;;2.37;2.20;;;7.20;99.90;;;;;;4995187;28;20197;-63
2023/12/09 09:59:25;;;;;;;2.80;2.60;;;7.20;99.90;;;;;;4999514;28;20209;-61
2023/12/09 10:01:53;;;;;;;2.40;2.17;;;7.30;99.90;;;;;;5005668;28;20208;-61
2023/12/09 10:04:20;;;;;;;3.00;2.30;;;7.30;99.90;;;;;;5003401;28;20292;-62
2023/12/09 10:06:56;;;;;;;2.97;2.43;;;7.20;99.90;;;;;;5001703;28;20209;-60
2023/12/09 10:09:23;;;;;;;2.80;2.30;;;7.30;99.90;;;;;;5003692;28;20209;-62
2023/12/09 10:11:50;;;;;;;1.93;1.73;;;7.30;99.90;;;;;;5003773;28;21228;-62
2023/12/09 10:14:17;;;;;;;2.40;2.20;;;7.50;99.90;;;;;;5005060;28;20203;-62
2023/12/09 10:16:48;;;;;;;2.20;2.10;;;7.60;99.90;;;;;;5002490;28;20319;-62
2023/12/09 10:19:16;;;;;;;1.90;1.80;;;7.70;99.90;;;;;;5002279;28;20249;-62
2023/12/09 10:21:48;;;;;;;1.47;1.30;;;7.70;99.90;;;;;;5002784;28;20241;-62
2023/12/09 10:24:15;;;;;;;1.57;1.47;;;7.70;99.90;;;;;;5003243;28;20256;-62
2023/12/09 10:26:42;;;;;;;1.60;1.50;;;7.70;99.90;;;;;;5001339;28;20197;-60
2023/12/09 10:29:09;;;;;;;2.60;1.73;;;7.70;99.90;;;;;;5004178;28;20236;-62
2023/12/09 10:31:36;;;;;;;4.93;3.43;;;7.50;99.90;;;;;;5000898;28;20268;-63
2023/12/09 10:34:04;;;;;;;2.37;2.17;;;7.30;99.90;;;;;;5003053;28;20212;-60
2023/12/09 10:36:31;;;;;;;2.40;2.27;;;7.40;99.90;;;;;;5001831;28;20209;-62
2023/12/09 10:39:00;;;;;;;1.87;1.53;;;7.40;99.90;;;;;;5008715;28;20227;-60
2023/12/09 10:41:28;;;;;;;2.30;2.00;;;7.40;99.90;;;;;;5000396;28;21366;-60
2023/12/09 10:43:56;;;;;;;3.93;2.50;;;7.40;99.90;;;;;;4999935;28;20308;-57
2023/12/09 10:46:23;;;;;;;2.07;1.77;;;7.40;99.90;;;;;;4993862;28;20241;-57
2023/12/09 10:48:51;;;;;;;3.03;2.83;;;7.30;99.90;;;;;;4993840;28;21065;-57
2023/12/09 10:51:18;;;;;;;3.23;3.03;;;7.20;99.90;;;;;;5000679;28;20238;-57
2023/12/09 10:53:45;;;;;;;4.20;3.90;;;7.30;99.90;;;;;;4999518;28;20195;-57
2023/12/09 10:56:14;;;;;;;4.53;4.13;;;7.30;99.90;;;;;;4997747;28;20205;-57
2023/12/09 10:58:42;;;;;;;6.43;5.93;;;7.30;99.90;;;;;;4997773;28;20229;-58
2023/12/09 11:01:10;;;;;;;5.77;5.27;;;7.40;99.90;;;;;;5014392;28;20253;-57
2023/12/09 11:03:38;;;;;;;7.47;5.93;;;7.40;99.90;;;;;;5009931;28;20217;-57
2023/12/09 11:06:07;;;;;;;6.07;4.83;;;7.40;99.90;;;;;;5010580;28;20583;-58
2023/12/09 11:08:37;;;;;;;7.30;5.53;;;7.40;99.90;;;;;;5009686;28;20226;-57
2023/12/09 11:11:05;;;;;;;5.67;5.10;;;7.40;99.90;;;;;;5009924;28;20213;-58
2023/12/09 11:13:35;;;;;;;7.23;5.77;;;7.50;99.90;;;;;;5005601;28;20276;-58
2023/12/09 11:16:09;;;;;;;6.37;5.77;;;7.50;99.90;;;;;;5008357;28;20207;-58
2023/12/09 11:18:36;;;;;;;8.50;6.07;;;7.50;99.90;;;;;;5007049;28;20256;-57
2023/12/09 11:21:04;;;;;;;7.20;6.10;;;7.40;99.90;;;;;;5007722;28;20696;-57
2023/12/09 11:23:33;;;;;;;11.50;6.33;;;7.20;99.90;;;;;;4992695;28;20737;-57
2023/12/09 11:26:01;;;;;;;7.43;5.80;;;7.20;99.90;;;;;;5007562;28;20209;-57
2023/12/09 11:28:28;;;;;;;6.30;5.33;;;7.10;99.90;;;;;;4997887;28;20227;-57
2023/12/09 11:30:58;;;;;;;6.60;5.97;;;7.00;99.90;;;;;;5005825;28;20313;-57
2023/12/09 11:33:26;;;;;;;6.37;5.63;;;7.00;99.90;;;;;;5008576;28;20232;-58
2023/12/09 11:35:54;;;;;;;5.77;5.13;;;7.00;99.90;;;;;;5010644;28;20699;-58
2023/12/09 11:38:22;;;;;;;5.23;4.83;;;6.90;99.90;;;;;;5009904;28;20287;-57
2023/12/09 11:40:50;;;;;;;4.07;3.77;;;6.90;99.90;;;;;;5009097;28;20213;-57
2023/12/09 11:43:18;;;;;;;5.60;4.90;;;6.80;99.90;;;;;;5008255;28;20265;-58
2023/12/09 11:45:45;;;;;;;5.67;5.17;;;6.80;99.90;;;;;;5009155;28;20671;-58
2023/12/09 11:48:13;;;;;;;5.77;5.20;;;6.90;99.90;;;;;;5000224;28;20280;-57
2023/12/09 11:50:40;;;;;;;7.83;5.37;;;6.90;99.90;;;;;;5007778;28;20267;-57
2023/12/09 11:53:07;;;;;;;4.77;4.43;;;6.90;99.90;;;;;;5015011;28;20205;-56
2023/12/09 11:55:35;;;;;;;5.40;4.97;;;6.90;99.90;;;;;;5006673;28;20200;-57
2023/12/09 11:58:03;;;;;;;5.93;5.40;;;6.90;99.90;;;;;;5008192;28;20229;-57
2023/12/09 12:00:30;;;;;;;4.90;4.40;;;6.90;99.90;;;;;;5006179;28;20201;-57
2023/12/09 12:02:57;;;;;;;10.40;5.47;;;6.90;99.90;;;;;;5011261;28;20240;-58
2023/12/09 12:05:25;;;;;;;5.43;4.93;;;6.90;99.90;;;;;;5003989;28;20221;-57
2023/12/09 12:07:52;;;;;;;7.43;5.57;;;7.00;99.90;;;;;;5001214;28;20712;-57
2023/12/09 12:10:19;;;;;;;6.93;5.03;;;6.90;99.90;;;;;;5004759;28;20201;-58
2023/12/09 12:12:46;;;;;;;6.10;5.23;;;6.90;99.90;;;;;;5002625;28;20197;-58
2023/12/09 12:15:14;;;;;;;5.80;4.70;;;6.80;99.90;;;;;;5002678;28;20208;-57
2023/12/09 12:17:41;;;;;;;4.90;4.50;;;6.70;99.90;;;;;;5001454;28;20708;-57
2023/12/09 12:20:11;;;;;;;6.80;5.73;;;6.70;99.90;;;;;;5002457;28;20204;-57
2023/12/09 12:22:40;;;;;;;9.33;6.70;;;6.60;99.90;;;;;;5001712;28;20212;-57
2023/12/09 12:25:09;;;;;;;7.50;5.63;;;6.50;99.90;;;;;;5004768;28;20228;-57
2023/12/09 12:27:37;;;;;;;8.40;5.03;;;6.40;99.90;;;;;;5000890;28;20311;-57
2023/12/09 12:30:08;;;;;;;4.77;4.33;;;6.40;99.90;;;;;;5004177;28;20272;-57
2023/12/09 12:32:37;;;;;;;3.30;3.00;;;6.50;99.90;;;;;;5001124;28;20201;-57
2023/12/09 12:35:05;;;;;;;1.93;1.83;;;6.40;99.90;;;;;;4999374;28;20204;-57
2023/12/09 12:37:32;;;;;;;2.60;2.40;;;6.50;99.90;;;;;;4999146;28;20281;-57
2023/12/09 12:40:01;;;;;;;2.20;2.10;;;6.60;99.90;;;;;;5000739;28;20209;-57
2023/12/09 12:42:29;;;;;;;4.70;2.43;;;6.70;99.90;;;;;;5006427;28;21012;-58
2023/12/09 12:44:56;;;;;;;5.20;3.03;;;6.70;99.90;;;;;;5002091;28;20232;-57
2023/12/09 12:47:23;;;;;;;1.90;1.80;;;6.90;99.90;;;;;;4997194;28;20225;-57
2023/12/09 12:49:50;;;;;;;3.07;2.67;;;7.20;99.90;;;;;;4998708;28;20542;-57
2023/12/09 12:52:17;;;;;;;3.37;3.10;;;7.30;99.90;;;;;;5006209;28;20210;-57